Baltic K — 3FLX8 — position and weather

sailwx.info

Track history (hours):
 
Tides and Currents Weather Stations Pressure Air Temp Water Temp Dewpoint Dewpoint Depression Visibility Wind Speed Wind Dir Waves Ship Positions

Baltic K

Last reported at 2017-Sep-17 23:45 UTC. Time now 2017-Sep-23 23:44 UTC.
Position N 34°43' E 139°53'.

Length 190 m; draft 9.9 m.

Type: Cargo ship. MMSI: 373107000.

Date/timePositionNaut miles runAvg speedWind from/ knotsBaromVisibWave heightAir tempDewpointWater temp
2017-Sep-17 23:45N 34°43' E 139°53'613.6
2017-Sep-17 23:20N 34°41' E 139°46'240 8.3
2017-Sep-16 18:18N 34°03' E 134°59'412.8
2017-Sep-16 18:00N 34°07' E 134°58'611.9
2017-Sep-16 17:31N 34°12' E 134°58'610.4
2017-Sep-16 16:58N 34°18' E 134°58'613.7
2017-Sep-16 16:30N 34°24' E 135°00'713.9
2017-Sep-16 16:00N 34°31' E 135°04'4 8.5
2017-Sep-16 15:30N 34°35' E 135°05'612.2
2017-Sep-16 15:00N 34°37' E 134°58'814.9
2017-Sep-16 14:30N 34°34' E 134°50'  
Track history (hours):
 
Tides and Currents Weather Stations Pressure Air Temp Water Temp Dewpoint Dewpoint Depression Visibility Wind Speed Wind Dir Waves Ship Positions

Baltic K

Last reported at 2017-Sep-17 23:45 UTC. Time now 2017-Sep-23 23:44 UTC.
Position N 34°43' E 139°53'.

Length 190 m; draft 9.9 m.

Type: Cargo ship. MMSI: 373107000.

Date/timePositionNaut miles runAvg speedWind from/ knotsBaromVisibWave heightAir tempDewpointWater temp
2017-Sep-17 23:45N 34°43' E 139°53'613.6
2017-Sep-17 23:20N 34°41' E 139°46'240 8.3
2017-Sep-16 18:18N 34°03' E 134°59'412.8
2017-Sep-16 18:00N 34°07' E 134°58'611.9
2017-Sep-16 17:31N 34°12' E 134°58'610.4
2017-Sep-16 16:58N 34°18' E 134°58'613.7
2017-Sep-16 16:30N 34°24' E 135°00'713.9
2017-Sep-16 16:00N 34°31' E 135°04'4 8.5
2017-Sep-16 15:30N 34°35' E 135°05'612.2
2017-Sep-16 15:00N 34°37' E 134°58'814.9
2017-Sep-16 14:30N 34°34' E 134°50'  

Dump ship's entire track history